createdAt,value
2022-07-26T00:00:58.901Z,1.69
2022-07-26T00:02:03.230Z,1.77
2022-07-26T00:03:08.590Z,1.61
2022-07-26T00:04:12.843Z,1.72
2022-07-26T00:05:18.220Z,1.82
2022-07-26T00:06:23.808Z,1.61
2022-07-26T00:07:28.421Z,1.75
2022-07-26T00:08:33.913Z,1.71
2022-07-26T00:09:39.485Z,1.76
2022-07-26T00:10:49.024Z,1.64
2022-07-26T00:11:55.638Z,1.48
2022-07-26T00:13:00.083Z,1.59
2022-07-26T00:14:07.261Z,1.62
2022-07-26T00:15:15.126Z,1.59
2022-07-26T00:16:19.766Z,1.66
2022-07-26T00:17:25.092Z,1.53
2022-07-26T00:18:28.748Z,1.86
2022-07-26T00:19:34.102Z,1.68
2022-07-26T00:20:38.998Z,1.96
2022-07-26T00:21:42.604Z,1.47
2022-07-26T00:22:45.413Z,1.77
2022-07-26T00:23:51.351Z,1.71
2022-07-26T00:24:57.749Z,1.81
2022-07-26T00:26:04.987Z,1.35
2022-07-26T00:27:10.425Z,1.67
2022-07-26T00:28:14.430Z,1.71
2022-07-26T00:29:18.627Z,1.54
2022-07-26T00:30:25.479Z,1.58
2022-07-26T00:31:29.422Z,1.73
2022-07-26T00:32:36.275Z,1.76
2022-07-26T00:33:40.795Z,1.62
2022-07-26T00:34:44.608Z,1.79
2022-07-26T00:35:48.803Z,1.59
2022-07-26T00:36:52.009Z,1.72
2022-07-26T00:37:58.738Z,1.50
2022-07-26T00:39:03.164Z,1.94
2022-07-26T00:40:09.049Z,1.63
2022-07-26T00:41:12.958Z,1.74
2022-07-26T00:42:18.021Z,1.70
2022-07-26T00:43:21.641Z,1.68
2022-07-26T00:44:25.617Z,1.62
2022-07-26T00:45:29.239Z,1.71
2022-07-26T00:46:36.899Z,1.59
2022-07-26T00:47:41.459Z,1.78
2022-07-26T00:48:45.971Z,1.75
2022-07-26T00:49:50.881Z,1.66
2022-07-26T00:50:59.250Z,1.69
2022-07-26T00:52:03.755Z,1.64
2022-07-26T00:53:10.683Z,1.60
2022-07-26T00:54:15.279Z,1.42
2022-07-26T00:55:19.654Z,1.55
2022-07-26T00:56:23.351Z,1.58
2022-07-26T00:57:28.016Z,1.51
2022-07-26T00:58:33.581Z,1.66
2022-07-26T00:59:37.399Z,1.52
2022-07-26T01:00:43.046Z,1.72
2022-07-26T01:01:48.016Z,1.67
2022-07-26T01:27:12.514Z,1.62
2022-07-26T01:28:19.499Z,1.48
2022-07-26T01:29:22.190Z,1.55
2022-07-26T01:30:29.276Z,1.70
2022-07-26T01:31:32.806Z,1.82
2022-07-26T01:32:38.772Z,1.78
2022-07-26T01:33:43.446Z,1.62
2022-07-26T01:34:47.788Z,1.87
2022-07-26T01:35:52.424Z,1.71
2022-07-26T01:38:09.473Z,1.92
2022-07-26T01:39:12.483Z,1.82
2022-07-26T01:40:16.273Z,1.82
2022-07-26T01:41:37.756Z,1.65
2022-07-26T01:42:29.612Z,1.98
2022-07-26T01:43:32.650Z,1.96
2022-07-26T01:44:35.697Z,1.96
2022-07-26T01:45:39.166Z,1.63
2022-07-26T01:46:42.945Z,1.77
2022-07-26T01:47:48.234Z,1.86
2022-07-26T01:48:52.175Z,1.84
2022-07-26T01:49:55.342Z,1.93
2022-07-26T01:51:04.229Z,1.91
2022-07-26T01:52:07.715Z,1.93
2022-07-26T01:53:12.683Z,1.81
2022-07-26T01:54:16.045Z,1.97
2022-07-26T01:55:21.568Z,1.81
2022-07-26T01:56:26.853Z,2.16
2022-07-26T01:57:32.760Z,1.91
2022-07-26T01:58:36.143Z,1.92
2022-07-26T01:59:39.660Z,2.26
2022-07-26T02:00:44.695Z,2.04
2022-07-26T02:01:51.229Z,2.06
2022-07-26T02:02:55.096Z,2.28
2022-07-26T02:04:02.337Z,2.15
2022-07-26T02:05:06.795Z,2.19
2022-07-26T02:06:11.099Z,2.26
2022-07-26T02:07:15.397Z,2.27
2022-07-26T02:08:18.875Z,2.21
2022-07-26T02:09:27.875Z,2.11
2022-07-26T02:10:49.077Z,2.22
2022-07-26T02:11:54.052Z,2.46
2022-07-26T02:12:57.623Z,2.13
2022-07-26T02:14:01.278Z,2.09
2022-07-26T02:15:09.757Z,2.26
2022-07-26T02:16:19.354Z,2.28
2022-07-26T02:17:24.672Z,2.38
2022-07-26T02:18:30.807Z,2.31
2022-07-26T02:19:36.198Z,2.17
2022-07-26T02:20:41.996Z,2.37
2022-07-26T02:21:46.580Z,2.20
2022-07-26T02:22:50.318Z,2.51
2022-07-26T02:23:54.914Z,2.42
2022-07-26T02:25:04.773Z,2.17
2022-07-26T02:26:05.931Z,2.26
2022-07-26T02:27:10.131Z,2.18
2022-07-26T02:28:13.951Z,2.42
2022-07-26T02:29:17.982Z,2.75
2022-07-26T02:30:26.184Z,2.56
2022-07-26T02:31:32.386Z,2.46
2022-07-26T02:32:39.410Z,2.48
2022-07-26T02:33:43.228Z,2.54
2022-07-26T02:34:55.800Z,2.27
2022-07-26T02:35:59.173Z,2.42
2022-07-26T02:37:06.360Z,2.36
2022-07-26T02:38:12.614Z,2.66
2022-07-26T02:39:16.890Z,2.51
2022-07-26T02:40:24.723Z,2.47
2022-07-26T02:41:31.457Z,2.37
2022-07-26T02:42:35.565Z,2.68
2022-07-26T02:43:39.262Z,2.70
2022-07-26T02:44:41.881Z,2.64
2022-07-26T02:45:44.568Z,2.38
2022-07-26T02:46:51.497Z,2.56
2022-07-26T02:47:56.126Z,2.59
2022-07-26T02:49:05.380Z,2.66
2022-07-26T02:50:12.118Z,2.47
2022-07-26T02:51:15.635Z,2.56
2022-07-26T02:52:21.121Z,2.56
2022-07-26T02:53:24.802Z,3.19
2022-07-26T02:54:34.629Z,2.71
2022-07-26T02:55:39.702Z,2.78
2022-07-26T02:56:45.340Z,2.71
2022-07-26T02:57:49.112Z,2.54
2022-07-26T02:58:54.500Z,2.71
2022-07-26T02:59:58.950Z,2.60
2022-07-26T03:01:03.644Z,2.91
2022-07-26T03:02:09.254Z,2.79
2022-07-26T03:03:14.521Z,2.59
2022-07-26T03:04:18.581Z,2.74
2022-07-26T03:05:22.843Z,2.53
2022-07-26T03:06:27.750Z,2.74
2022-07-26T03:08:42.273Z,2.62
2022-07-26T03:09:45.713Z,2.76
2022-07-26T03:10:48.447Z,2.93
2022-07-26T03:11:52.376Z,3.01
2022-07-26T03:12:59.491Z,2.74
2022-07-26T03:14:02.734Z,2.57
2022-07-26T03:15:09.917Z,2.69
2022-07-26T03:16:17.962Z,2.89
2022-07-26T03:17:19.499Z,2.64
2022-07-26T03:18:29.734Z,2.85
2022-07-26T03:19:34.278Z,2.76
2022-07-26T03:20:38.067Z,2.96
2022-07-26T03:21:40.533Z,2.52
2022-07-26T03:22:47.744Z,2.84
2022-07-26T03:23:51.295Z,3.10
2022-07-26T03:24:54.624Z,2.64
2022-07-26T03:25:59.193Z,2.74
2022-07-26T03:27:06.506Z,2.93
2022-07-26T03:28:10.435Z,2.86
2022-07-26T03:29:14.079Z,3.09
2022-07-26T03:30:24.531Z,2.60
2022-07-26T03:31:30.984Z,2.66
2022-07-26T03:32:35.977Z,2.76
2022-07-26T03:33:41.640Z,2.83
2022-07-26T03:34:49.150Z,2.81
2022-07-26T03:36:00.333Z,2.79
2022-07-26T03:37:08.190Z,2.87
2022-07-26T03:38:12.716Z,2.84
2022-07-26T03:39:16.115Z,2.88
2022-07-26T03:40:21.392Z,2.84
2022-07-26T03:41:25.289Z,2.81
2022-07-26T03:42:29.772Z,2.78
2022-07-26T03:43:39.248Z,2.61
2022-07-26T03:44:43.046Z,2.81
2022-07-26T03:45:46.535Z,2.77
2022-07-26T03:46:50.339Z,2.60
2022-07-26T03:47:53.732Z,2.70
2022-07-26T03:48:57.241Z,2.79
2022-07-26T03:50:01.266Z,2.55
2022-07-26T03:52:16.869Z,2.98
2022-07-26T03:53:20.449Z,2.80
2022-07-26T03:54:27.946Z,3.06
2022-07-26T03:55:51.123Z,2.64
2022-07-26T03:56:55.198Z,2.70
2022-07-26T03:57:58.737Z,3.06
2022-07-26T03:59:10.562Z,2.76
2022-07-26T04:00:18.489Z,2.89
2022-07-26T04:01:23.772Z,2.94
2022-07-26T04:02:27.263Z,2.76
2022-07-26T04:03:31.268Z,2.78
2022-07-26T04:04:35.506Z,2.69
2022-07-26T04:05:39.318Z,3.01
2022-07-26T04:06:47.174Z,3.11
2022-07-26T04:07:53.084Z,2.93
2022-07-26T04:08:56.816Z,2.98
2022-07-26T04:10:01.578Z,2.94
2022-07-26T04:11:04.867Z,2.96
2022-07-26T04:12:09.568Z,3.16
2022-07-26T04:13:13.081Z,2.62
2022-07-26T04:14:18.500Z,3.02
2022-07-26T04:15:25.411Z,3.02
2022-07-26T04:16:40.104Z,3.11
2022-07-26T04:17:44.256Z,2.92
2022-07-26T04:18:46.883Z,2.91
2022-07-26T04:19:51.553Z,2.91
2022-07-26T04:20:54.292Z,2.87
2022-07-26T04:21:57.689Z,2.72
2022-07-26T04:23:01.551Z,3.00
2022-07-26T04:24:06.732Z,2.74
2022-07-26T04:25:12.337Z,3.07
2022-07-26T04:26:15.787Z,3.09
2022-07-26T04:27:19.289Z,2.73
2022-07-26T04:28:24.050Z,2.80
2022-07-26T04:29:30.743Z,3.05
2022-07-26T04:30:35.789Z,2.70
2022-07-26T04:31:42.763Z,3.37
2022-07-26T04:32:49.711Z,2.93
2022-07-26T04:33:53.204Z,3.06
2022-07-26T04:34:59.863Z,2.80
2022-07-26T04:36:04.562Z,2.62
2022-07-26T04:37:11.265Z,2.59
2022-07-26T04:38:15.369Z,2.89
2022-07-26T04:39:22.300Z,2.61
2022-07-26T04:40:28.546Z,2.64
2022-07-26T04:41:39.361Z,2.58
2022-07-26T04:42:43.005Z,2.39
2022-07-26T04:43:50.049Z,2.56
2022-07-26T04:44:53.710Z,2.66
2022-07-26T04:47:13.870Z,2.43
2022-07-26T04:48:18.046Z,2.21
2022-07-26T04:49:25.118Z,2.29
2022-07-26T04:50:35.180Z,2.20
2022-07-26T04:51:40.843Z,2.27
2022-07-26T04:52:44.278Z,2.24
2022-07-26T04:53:47.744Z,2.51
2022-07-26T04:54:51.107Z,2.26
2022-07-26T04:55:54.793Z,2.35
2022-07-26T04:57:01.192Z,2.48
2022-07-26T04:58:05.842Z,2.63
2022-07-26T04:59:09.660Z,2.94
2022-07-26T05:00:21.702Z,2.14
2022-07-26T05:01:24.691Z,2.37
2022-07-26T05:02:28.431Z,2.71
2022-07-26T05:03:31.966Z,2.58
2022-07-26T05:04:37.656Z,2.37
2022-07-26T05:05:41.196Z,2.70
2022-07-26T05:06:44.743Z,2.71
2022-07-26T05:07:54.246Z,2.89
2022-07-26T05:08:58.575Z,2.98
2022-07-26T05:10:02.079Z,2.78
2022-07-26T05:11:04.979Z,2.67
2022-07-26T05:12:10.484Z,2.65
2022-07-26T05:13:23.154Z,3.01
2022-07-26T05:14:24.944Z,2.73
2022-07-26T05:15:35.018Z,2.68
2022-07-26T05:16:35.218Z,2.59
2022-07-26T05:17:41.453Z,2.86
2022-07-26T05:18:45.729Z,2.58
2022-07-26T05:19:54.271Z,2.84
2022-07-26T05:21:01.280Z,2.82
2022-07-26T05:22:04.934Z,3.07
2022-07-26T05:23:08.108Z,2.49
2022-07-26T05:24:12.132Z,2.65
2022-07-26T05:25:14.926Z,2.56
2022-07-26T05:26:19.513Z,2.58
2022-07-26T05:27:24.557Z,2.55
2022-07-26T05:28:28.980Z,2.54
2022-07-26T05:29:33.080Z,2.77
2022-07-26T05:30:40.599Z,2.85
2022-07-26T05:31:49.149Z,2.68
2022-07-26T05:32:53.909Z,2.53
2022-07-26T05:33:58.846Z,2.23
2022-07-26T05:35:03.397Z,2.42
2022-07-26T05:36:07.255Z,2.41
2022-07-26T05:37:10.690Z,2.44
2022-07-26T05:38:14.071Z,2.25
2022-07-26T05:39:17.839Z,2.40
2022-07-26T05:40:21.647Z,2.44
2022-07-26T05:41:26.204Z,2.43
2022-07-26T05:42:31.064Z,2.34
2022-07-26T05:43:41.599Z,2.59
2022-07-26T05:44:44.500Z,2.21
2022-07-26T05:45:49.282Z,2.19
2022-07-26T05:46:53.091Z,2.69
2022-07-26T05:48:01.099Z,2.59
2022-07-26T05:49:07.284Z,2.46
2022-07-26T05:50:11.323Z,2.52
2022-07-26T05:51:14.983Z,2.58
2022-07-26T05:52:18.597Z,2.52
2022-07-26T05:53:22.615Z,2.34
2022-07-26T05:54:26.039Z,2.41
2022-07-26T05:55:29.099Z,2.22
2022-07-26T05:56:36.194Z,2.39
2022-07-26T05:57:42.797Z,2.51
2022-07-26T05:58:50.050Z,2.36
2022-07-26T05:59:53.624Z,2.45
2022-07-26T06:00:58.295Z,2.26
2022-07-26T06:02:02.010Z,2.75
2022-07-26T06:04:19.633Z,2.52
2022-07-26T06:05:24.320Z,2.44
2022-07-26T06:06:28.770Z,2.29
2022-07-26T06:07:31.401Z,2.16
2022-07-26T06:08:36.223Z,2.30
2022-07-26T06:09:40.672Z,2.21
2022-07-26T06:10:46.780Z,2.53
2022-07-26T06:11:50.292Z,2.27
2022-07-26T06:12:53.626Z,2.26
2022-07-26T06:14:00.264Z,2.16
2022-07-26T06:15:15.709Z,2.08
2022-07-26T06:16:12.883Z,2.24
2022-07-26T06:17:16.605Z,2.25
2022-07-26T06:18:21.140Z,2.26
2022-07-26T06:19:24.785Z,2.36
2022-07-26T06:20:35.029Z,2.23
2022-07-26T06:21:38.964Z,1.97
2022-07-26T06:22:41.771Z,2.09
2022-07-26T06:23:45.765Z,1.92
2022-07-26T06:24:52.443Z,2.03
2022-07-26T06:25:56.956Z,2.08
2022-07-26T06:28:13.154Z,2.06
2022-07-26T06:29:16.720Z,2.48
2022-07-26T06:30:21.311Z,2.55
2022-07-26T06:31:26.286Z,2.44
2022-07-26T06:32:30.529Z,2.44
2022-07-26T06:33:34.685Z,2.18
2022-07-26T06:34:40.057Z,2.27
2022-07-26T06:35:43.588Z,2.08
2022-07-26T06:36:47.473Z,2.06
2022-07-26T06:37:52.719Z,2.31
2022-07-26T06:38:56.353Z,2.06
2022-07-26T06:39:59.864Z,2.14
2022-07-26T06:41:08.224Z,2.08
2022-07-26T06:42:11.706Z,1.90
2022-07-26T06:43:17.998Z,2.13
2022-07-26T06:44:20.769Z,1.90
2022-07-26T06:45:24.437Z,2.33
2022-07-26T06:46:29.075Z,2.05
2022-07-26T06:47:33.058Z,2.01
2022-07-26T06:48:36.145Z,2.18
2022-07-26T06:49:41.049Z,2.33
2022-07-26T06:50:45.874Z,2.01
2022-07-26T06:51:49.374Z,2.20
2022-07-26T06:52:53.052Z,2.41
2022-07-26T06:54:00.981Z,2.12
2022-07-26T06:55:06.619Z,2.42
2022-07-26T06:56:09.553Z,2.23
2022-07-26T06:57:13.595Z,1.97
2022-07-26T06:58:17.812Z,2.34
2022-07-26T06:59:21.431Z,2.36
2022-07-26T07:00:25.174Z,2.41
2022-07-26T07:01:58.611Z,2.29
2022-07-26T07:02:37.543Z,2.14
2022-07-26T07:03:40.604Z,2.17
2022-07-26T07:04:46.497Z,2.11
2022-07-26T07:05:52.382Z,2.14
2022-07-26T07:06:58.116Z,2.22
2022-07-26T07:08:07.571Z,2.30
2022-07-26T07:09:11.255Z,2.19
2022-07-26T07:10:17.577Z,2.16
2022-07-26T07:11:24.752Z,1.91
2022-07-26T07:12:30.962Z,2.23
2022-07-26T07:13:33.741Z,2.36
2022-07-26T07:14:37.920Z,2.19
2022-07-26T07:15:40.885Z,2.32
2022-07-26T07:16:52.942Z,1.85
2022-07-26T07:17:55.601Z,2.18
2022-07-26T07:18:58.527Z,1.98
2022-07-26T07:20:05.135Z,2.02
2022-07-26T07:21:08.054Z,1.74
2022-07-26T07:22:15.624Z,1.85
2022-07-26T07:23:22.981Z,1.69
2022-07-26T07:24:25.640Z,2.15
2022-07-26T07:25:30.788Z,1.71
2022-07-26T07:26:36.816Z,1.66
2022-07-26T07:27:40.500Z,1.79
2022-07-26T07:28:44.037Z,1.75
2022-07-26T07:29:49.598Z,1.68
2022-07-26T07:30:54.572Z,1.77
2022-07-26T07:31:58.309Z,1.78
2022-07-26T07:33:03.547Z,1.78
2022-07-26T07:34:08.605Z,1.62
2022-07-26T07:35:12.935Z,1.71
2022-07-26T07:36:23.949Z,1.54
2022-07-26T07:37:26.876Z,1.58
2022-07-26T07:38:33.778Z,1.68
2022-07-26T07:39:39.424Z,1.61
2022-07-26T07:40:44.908Z,1.45
2022-07-26T07:41:49.636Z,1.70
2022-07-26T07:42:58.360Z,1.64
2022-07-26T07:44:02.229Z,1.52
2022-07-26T07:45:09.110Z,1.64
2022-07-26T07:46:15.146Z,1.60
2022-07-26T07:47:19.208Z,1.60
2022-07-26T07:48:24.628Z,1.54
2022-07-26T07:49:29.308Z,1.64
2022-07-26T07:50:35.241Z,1.73
2022-07-26T07:51:40.741Z,1.68
2022-07-26T07:52:46.479Z,1.45
2022-07-26T07:55:36.590Z,1.58
2022-07-26T07:56:09.128Z,1.50
2022-07-26T07:57:13.661Z,1.34
2022-07-26T07:58:18.981Z,1.54
2022-07-26T07:59:26.878Z,1.48
2022-07-26T08:00:32.101Z,1.25
2022-07-26T08:01:39.526Z,1.44
2022-07-26T08:02:48.523Z,1.34
2022-07-26T08:03:54.914Z,1.56
2022-07-26T08:05:03.089Z,1.40
2022-07-26T08:06:05.786Z,1.56
2022-07-26T08:07:09.607Z,1.44
2022-07-26T08:08:13.357Z,1.25
2022-07-26T08:09:18.227Z,1.18
2022-07-26T08:10:21.903Z,1.22
2022-07-26T08:11:25.229Z,1.09
2022-07-26T08:12:29.752Z,1.22
2022-07-26T08:13:34.087Z,1.25
2022-07-26T08:14:37.697Z,1.16
2022-07-26T08:15:49.986Z,1.27
2022-07-26T08:16:55.188Z,1.30
2022-07-26T08:17:57.723Z,1.28
2022-07-26T08:19:03.172Z,1.19
2022-07-26T08:20:08.925Z,1.34
2022-07-26T08:21:15.433Z,1.18
2022-07-26T08:22:19.321Z,1.41
2022-07-26T08:23:32.006Z,1.29
2022-07-26T08:24:35.769Z,1.22
2022-07-26T08:25:50.076Z,1.12
2022-07-26T08:26:45.388Z,1.16
2022-07-26T08:28:03.291Z,1.22
2022-07-26T08:28:58.376Z,1.28
2022-07-26T08:29:59.041Z,1.29
2022-07-26T08:31:03.233Z,1.20
2022-07-26T08:32:07.612Z,1.14
2022-07-26T08:33:11.742Z,1.26
2022-07-26T08:34:17.070Z,1.30
2022-07-26T08:35:22.782Z,1.51
2022-07-26T08:36:32.219Z,1.59
2022-07-26T08:37:32.504Z,1.38
2022-07-26T08:38:38.494Z,1.33
2022-07-26T08:40:00.037Z,1.26
2022-07-26T08:41:03.889Z,1.61
2022-07-26T08:42:22.486Z,1.66
2022-07-26T08:43:25.279Z,1.56
2022-07-26T08:44:29.173Z,1.37
2022-07-26T08:45:32.950Z,1.34
2022-07-26T08:46:37.694Z,1.61
2022-07-26T08:47:55.388Z,1.73
2022-07-26T08:48:46.163Z,1.36
2022-07-26T08:49:51.112Z,1.40
2022-07-26T08:50:57.701Z,1.26
2022-07-26T08:52:02.053Z,1.64
2022-07-26T08:53:09.009Z,1.30
2022-07-26T08:54:16.137Z,1.33
2022-07-26T08:55:21.188Z,1.53
2022-07-26T08:56:29.067Z,1.59
2022-07-26T08:57:33.506Z,1.67
2022-07-26T08:58:37.428Z,1.34
2022-07-26T08:59:40.830Z,1.43
2022-07-26T09:00:47.581Z,1.31
2022-07-26T09:01:55.500Z,1.59
2022-07-26T09:03:03.379Z,1.51
2022-07-26T09:04:31.854Z,1.40
2022-07-26T09:05:32.615Z,1.40
2022-07-26T09:06:37.116Z,1.34
2022-07-26T09:07:44.345Z,1.35
2022-07-26T09:08:50.488Z,1.35
2022-07-26T09:10:01.018Z,1.38
2022-07-26T09:12:29.747Z,1.38
2022-07-26T09:13:53.090Z,1.37
2022-07-26T09:14:58.848Z,1.45
2022-07-26T09:16:12.567Z,1.40
2022-07-26T09:17:22.689Z,1.24
2022-07-26T09:18:28.546Z,1.34
2022-07-26T09:19:30.966Z,1.59
2022-07-26T09:20:35.189Z,1.20
2022-07-26T09:21:39.639Z,1.33
2022-07-26T09:23:01.454Z,1.26
2022-07-26T09:24:08.824Z,1.18
2022-07-26T09:25:25.169Z,1.41
2022-07-26T09:26:29.025Z,1.53
2022-07-26T09:27:36.363Z,1.51
2022-07-26T09:28:45.036Z,1.08
2022-07-26T09:29:53.376Z,1.28
2022-07-26T09:31:04.243Z,1.38
2022-07-26T09:32:17.709Z,1.32
2022-07-26T09:33:21.804Z,1.32
2022-07-26T09:34:27.784Z,1.28
2022-07-26T09:35:52.315Z,1.15
2022-07-26T09:36:54.414Z,1.30
2022-07-26T09:37:59.327Z,1.38
2022-07-26T09:39:04.832Z,1.20
2022-07-26T09:40:14.733Z,1.46
2022-07-26T09:41:25.040Z,1.37
2022-07-26T09:42:30.220Z,1.51
2022-07-26T09:43:39.691Z,1.51
2022-07-26T09:44:47.856Z,1.56
2022-07-26T09:45:53.846Z,1.32
2022-07-26T09:47:01.605Z,1.42
2022-07-26T09:48:06.071Z,1.34
2022-07-26T09:49:21.728Z,1.45
2022-07-26T09:50:32.679Z,1.32
2022-07-26T09:51:49.957Z,1.37
2022-07-26T09:53:06.461Z,1.47
2022-07-26T09:54:14.161Z,1.41
2022-07-26T09:55:19.154Z,1.31
2022-07-26T09:56:22.045Z,1.29
2022-07-26T09:57:25.292Z,1.22
2022-07-26T09:58:31.785Z,1.29
2022-07-26T09:59:43.084Z,1.34
2022-07-26T10:00:50.040Z,1.29
2022-07-26T10:01:54.167Z,1.14
2022-07-26T10:03:00.444Z,1.56
2022-07-26T10:05:18.935Z,1.32
2022-07-26T10:06:28.555Z,1.33
2022-07-26T10:07:29.754Z,1.24
2022-07-26T10:08:33.518Z,1.28
2022-07-26T10:09:53.258Z,1.44
2022-07-26T10:11:09.895Z,1.20
2022-07-26T10:12:16.931Z,1.30
2022-07-26T10:13:23.684Z,1.42
2022-07-26T10:14:46.683Z,1.31
2022-07-26T10:15:51.638Z,1.40
2022-07-26T10:16:56.686Z,1.46
2022-07-26T10:17:59.829Z,1.53
2022-07-26T10:19:06.983Z,1.20
2022-07-26T10:20:37.107Z,1.24
2022-07-26T10:21:50.641Z,1.20
2022-07-26T10:22:55.519Z,1.24
2022-07-26T10:24:04.158Z,1.29
2022-07-26T10:25:20.695Z,1.48
2022-07-26T10:26:36.642Z,1.34
2022-07-26T10:27:52.369Z,1.37
2022-07-26T10:28:55.815Z,1.37
2022-07-26T10:30:19.053Z,1.24
2022-07-26T10:31:30.654Z,1.40
2022-07-26T10:32:36.090Z,1.30
2022-07-26T10:33:44.904Z,1.32
2022-07-26T10:34:48.325Z,1.18
2022-07-26T10:35:51.276Z,1.54
2022-07-26T10:37:08.885Z,1.31
2022-07-26T10:38:26.521Z,1.35
2022-07-26T10:39:32.220Z,1.58
2022-07-26T10:40:38.572Z,1.31
2022-07-26T10:41:46.265Z,1.34
2022-07-26T10:42:51.344Z,1.32
2022-07-26T10:44:09.687Z,1.39
2022-07-26T10:45:22.554Z,1.52
2022-07-26T10:46:30.588Z,1.26
2022-07-26T10:47:35.469Z,1.30
2022-07-26T10:49:04.311Z,1.53
2022-07-26T10:50:12.909Z,1.40
2022-07-26T10:52:36.649Z,1.28
2022-07-26T10:53:41.620Z,1.25
2022-07-26T10:55:08.294Z,1.39
2022-07-26T10:56:16.289Z,1.38
2022-07-26T10:57:21.073Z,1.34
2022-07-26T10:58:27.072Z,1.22
2022-07-26T10:59:54.682Z,1.29
2022-07-26T11:00:45.850Z,1.21
2022-07-26T11:01:50.017Z,1.27
2022-07-26T11:02:58.247Z,1.01
2022-07-26T11:04:01.764Z,1.08
2022-07-26T11:05:16.669Z,1.28
2022-07-26T11:06:22.196Z,1.16
2022-07-26T11:07:26.264Z,1.19
2022-07-26T11:08:32.548Z,1.19
2022-07-26T11:09:37.157Z,1.21
2022-07-26T11:10:47.648Z,1.19
2022-07-26T11:11:51.951Z,1.20
2022-07-26T11:13:09.604Z,1.26
2022-07-26T11:14:16.879Z,1.32
2022-07-26T11:15:26.021Z,1.06
2022-07-26T11:16:43.239Z,1.18
2022-07-26T11:17:47.124Z,1.30
2022-07-26T11:18:51.511Z,1.46
2022-07-26T11:19:57.428Z,1.21
2022-07-26T11:21:13.826Z,1.25
2022-07-26T11:22:21.381Z,1.23
2022-07-26T11:23:30.936Z,1.14
2022-07-26T11:24:39.530Z,1.07
2022-07-26T11:25:43.567Z,1.20
2022-07-26T11:26:47.567Z,1.06
2022-07-26T11:28:07.364Z,1.11
2022-07-26T11:29:17.512Z,1.09
2022-07-26T11:30:19.553Z,1.26
2022-07-26T11:32:49.665Z,1.30
2022-07-26T11:33:54.357Z,1.00
2022-07-26T11:34:59.559Z,1.13
2022-07-26T11:36:12.204Z,1.04
2022-07-26T11:37:16.175Z,1.26
2022-07-26T11:38:25.102Z,0.99
2022-07-26T11:39:34.660Z,1.03
2022-07-26T11:40:47.613Z,1.07
2022-07-26T11:43:08.148Z,1.12
2022-07-26T11:44:21.321Z,1.04
2022-07-26T11:45:31.487Z,1.07
2022-07-26T11:46:45.027Z,1.09
2022-07-26T11:47:48.916Z,1.10
2022-07-26T11:48:57.066Z,1.09
2022-07-26T11:50:16.821Z,1.29
2022-07-26T11:51:27.876Z,1.25
2022-07-26T11:52:40.418Z,1.23
2022-07-26T11:53:46.994Z,1.29
2022-07-26T11:54:54.144Z,1.22
2022-07-26T11:56:04.938Z,1.43
2022-07-26T11:57:17.278Z,1.13
2022-07-26T11:58:24.187Z,1.37
2022-07-26T11:59:31.586Z,1.08
2022-07-26T12:00:35.755Z,1.06
2022-07-26T12:01:40.631Z,1.16
2022-07-26T12:02:51.423Z,1.20
2022-07-26T12:03:55.643Z,1.30
2022-07-26T12:05:21.470Z,1.08
2022-07-26T12:06:30.345Z,1.26
2022-07-26T12:07:34.084Z,1.20
2022-07-26T12:08:43.136Z,1.54
2022-07-26T12:09:51.122Z,1.36
2022-07-26T12:11:01.656Z,1.15
2022-07-26T12:13:39.722Z,1.36
2022-07-26T12:14:41.598Z,1.24
2022-07-26T12:15:51.737Z,1.21
2022-07-26T12:18:02.436Z,1.32
2022-07-26T12:19:08.067Z,1.18
2022-07-26T12:20:19.484Z,1.06
2022-07-26T12:21:42.014Z,1.22
2022-07-26T12:22:57.751Z,1.24
2022-07-26T12:24:01.542Z,1.29
2022-07-26T12:25:06.530Z,1.19
2022-07-26T12:26:29.042Z,1.11
2022-07-26T12:27:34.455Z,1.07
2022-07-26T12:28:42.995Z,1.21
2022-07-26T12:31:01.481Z,1.31
2022-07-26T12:32:12.747Z,1.13
2022-07-26T12:33:16.858Z,1.16
2022-07-26T12:34:22.242Z,1.32
2022-07-26T12:35:34.179Z,1.21
2022-07-26T12:36:43.418Z,1.01
2022-07-26T12:37:52.540Z,1.10
2022-07-26T12:39:01.550Z,1.33
2022-07-26T12:40:16.361Z,1.48
2022-07-26T12:41:36.113Z,1.20
2022-07-26T12:42:45.757Z,1.02
2022-07-26T12:43:52.754Z,1.16
2022-07-26T12:44:57.757Z,1.25
2022-07-26T12:46:04.387Z,1.19
2022-07-26T12:47:09.926Z,1.04
2022-07-26T12:48:12.809Z,1.26
2022-07-26T12:49:19.146Z,1.10
2022-07-26T12:50:28.093Z,1.14
2022-07-26T12:51:31.011Z,1.41
2022-07-26T12:52:38.382Z,1.12
2022-07-26T12:53:43.594Z,1.27
2022-07-26T12:54:52.164Z,1.22
2022-07-26T12:55:57.143Z,1.33
2022-07-26T12:56:59.822Z,1.39
2022-07-26T12:58:07.349Z,1.20
2022-07-26T12:59:17.691Z,1.31
2022-07-26T13:00:22.600Z,1.40
2022-07-26T13:01:25.864Z,1.29
2022-07-26T13:02:29.032Z,1.16
2022-07-26T13:03:32.393Z,1.28
2022-07-26T13:04:36.717Z,1.29
2022-07-26T13:05:41.033Z,1.21
2022-07-26T13:06:45.729Z,1.48
2022-07-26T13:08:02.531Z,1.29
2022-07-26T13:09:07.931Z,1.21
2022-07-26T13:11:21.113Z,1.29
2022-07-26T13:12:25.373Z,1.20
2022-07-26T13:13:29.471Z,1.32
2022-07-26T13:14:42.272Z,1.24
2022-07-26T13:15:48.768Z,1.17
2022-07-26T13:16:54.228Z,1.22
2022-07-26T13:17:58.622Z,1.20
2022-07-26T13:19:02.464Z,1.31
2022-07-26T13:20:10.764Z,1.06
2022-07-26T13:21:15.441Z,1.28
2022-07-26T13:22:18.912Z,1.30
2022-07-26T13:23:26.039Z,1.20
2022-07-26T13:24:31.830Z,1.68
2022-07-26T13:25:39.616Z,1.20
2022-07-26T13:26:43.174Z,1.14
2022-07-26T13:27:45.893Z,1.38
2022-07-26T13:28:50.168Z,1.09
2022-07-26T13:29:54.393Z,1.30
2022-07-26T13:31:01.063Z,1.38
2022-07-26T13:32:06.702Z,1.11
2022-07-26T13:33:16.957Z,1.20
2022-07-26T13:34:23.137Z,1.37
2022-07-26T13:35:28.551Z,1.20
2022-07-26T13:36:33.005Z,1.19
2022-07-26T13:37:37.548Z,1.31
2022-07-26T13:38:43.247Z,1.53
2022-07-26T13:39:48.605Z,1.36
2022-07-26T13:40:53.722Z,1.11
2022-07-26T13:41:58.159Z,1.39
2022-07-26T13:43:02.080Z,1.22
2022-07-26T13:44:10.862Z,1.42
2022-07-26T13:45:15.513Z,1.12
2022-07-26T13:46:21.649Z,1.34
2022-07-26T13:47:24.454Z,1.28
2022-07-26T13:48:28.518Z,1.30
2022-07-26T13:49:31.543Z,1.27
2022-07-26T13:50:37.621Z,1.32
2022-07-26T13:52:01.150Z,1.19
2022-07-26T13:53:05.260Z,1.27
2022-07-26T13:54:10.119Z,1.19
2022-07-26T13:55:15.137Z,1.18
2022-07-26T13:56:20.494Z,1.30
2022-07-26T13:57:24.689Z,1.42
2022-07-26T13:58:32.330Z,1.28
2022-07-26T13:59:36.008Z,1.28
2022-07-26T14:00:42.854Z,1.31
2022-07-26T14:01:46.302Z,1.36
2022-07-26T14:02:51.156Z,1.50
2022-07-26T14:03:55.746Z,1.60
2022-07-26T14:04:59.473Z,1.50
2022-07-26T14:06:04.613Z,1.30
2022-07-26T14:07:09.632Z,1.41
2022-07-26T14:08:17.103Z,1.33
2022-07-26T14:09:21.966Z,1.32
2022-07-26T14:10:28.380Z,1.46
2022-07-26T14:11:34.382Z,1.28
2022-07-26T14:12:38.709Z,1.30
2022-07-26T14:13:46.298Z,1.39
2022-07-26T14:14:51.925Z,1.37
2022-07-26T14:15:58.892Z,1.53
2022-07-26T14:17:02.829Z,1.39
2022-07-26T14:18:06.718Z,1.44
2022-07-26T14:19:10.616Z,1.32
2022-07-26T14:20:17.790Z,1.22
2022-07-26T14:21:24.202Z,1.26
2022-07-26T14:22:31.318Z,1.39
2022-07-26T14:23:34.337Z,1.50
2022-07-26T14:24:39.128Z,1.20
2022-07-26T14:25:45.696Z,1.36
2022-07-26T14:26:53.119Z,1.27
2022-07-26T14:27:55.545Z,1.37
2022-07-26T14:28:59.020Z,1.31
2022-07-26T14:30:06.103Z,1.12
2022-07-26T14:31:10.247Z,1.28
2022-07-26T14:32:18.017Z,1.20
2022-07-26T14:33:19.818Z,1.29
2022-07-26T14:34:23.398Z,1.40
2022-07-26T14:35:36.616Z,1.30
2022-07-26T14:36:42.102Z,1.20
2022-07-26T14:37:46.130Z,1.50
2022-07-26T14:38:51.854Z,1.35
2022-07-26T14:39:56.834Z,1.43
2022-07-26T14:41:02.890Z,1.44
2022-07-26T14:42:08.313Z,1.27
2022-07-26T14:43:10.961Z,1.40
2022-07-26T14:44:18.202Z,1.44
2022-07-26T14:45:23.531Z,1.35
2022-07-26T14:46:30.623Z,1.39
2022-07-26T14:47:34.653Z,1.16
2022-07-26T14:48:54.126Z,1.49
2022-07-26T14:49:45.030Z,1.49
2022-07-26T14:51:08.543Z,1.33
2022-07-26T14:51:57.623Z,1.49
2022-07-26T14:53:06.696Z,1.28
2022-07-26T14:54:11.513Z,1.40
2022-07-26T14:55:20.354Z,1.34
2022-07-26T14:56:21.742Z,1.32
2022-07-26T14:57:26.454Z,1.43
2022-07-26T14:58:37.185Z,1.49
2022-07-26T14:59:42.800Z,1.41
2022-07-26T15:00:53.847Z,1.33
2022-07-26T15:02:05.354Z,1.42
2022-07-26T15:03:10.648Z,1.48
2022-07-26T15:04:14.719Z,1.32
2022-07-26T15:05:19.265Z,1.21
2022-07-26T15:06:23.502Z,1.42
2022-07-26T15:07:27.899Z,1.20
2022-07-26T15:08:31.875Z,1.42
2022-07-26T15:09:36.262Z,1.30
2022-07-26T15:10:39.917Z,1.23
2022-07-26T15:11:43.526Z,1.39
2022-07-26T15:12:49.998Z,1.18
2022-07-26T15:13:55.484Z,1.32
2022-07-26T15:15:00.605Z,1.26
2022-07-26T15:16:08.207Z,1.28
2022-07-26T15:17:14.012Z,1.10
2022-07-26T15:18:17.391Z,1.19
2022-07-26T15:19:25.392Z,1.15
2022-07-26T15:20:27.097Z,1.30
2022-07-26T15:21:30.776Z,1.20
2022-07-26T15:22:37.598Z,1.25
2022-07-26T15:23:41.410Z,1.19
2022-07-26T15:24:47.035Z,1.34
2022-07-26T15:25:53.450Z,1.14
2022-07-26T15:26:57.202Z,1.27